Time;durP1;ratioP1;P1;durP2;ratioP2;P2;SDS_P1;SDS_P2;PMS_P1;PMS_P2;Temp;Humidity;BMP_temperature;BMP_pressure;BME280_temperature;BME280_humidity;BME280_pressure;Samples;Min_cycle;Max_cycle;Signal;HPM_P1;HPM_P2
2023/08/03 00:00:07;;;;;;;1.70;1.20;;;17.20;99.90;;;;;;5019674;28;20184;-84
2023/08/03 00:02:34;;;;;;;2.30;1.00;;;17.20;1.00;;;;;;5013559;28;20191;-84
2023/08/03 00:05:01;;;;;;;2.53;1.60;;;17.20;99.90;;;;;;5016681;28;20443;-84
2023/08/03 00:07:27;;;;;;;1.60;1.17;;;17.20;99.90;;;;;;5016312;28;20457;-85
2023/08/03 00:09:52;;;;;;;2.40;1.57;;;17.20;99.90;;;;;;5021000;28;20870;-85
2023/08/03 00:12:18;;;;;;;2.27;1.10;;;17.30;99.90;;;;;;5027581;28;20176;-84
2023/08/03 00:14:44;;;;;;;3.37;1.57;;;17.20;99.90;;;;;;5019922;28;20668;-84
2023/08/03 00:17:09;;;;;;;2.70;1.10;;;17.30;99.90;;;;;;5012620;28;20209;-85
2023/08/03 00:19:35;;;;;;;5.40;1.50;;;17.30;1.00;;;;;;5015755;28;20698;-84
2023/08/03 00:22:01;;;;;;;2.00;1.40;;;17.30;1.00;;;;;;5019202;28;20186;-85
2023/08/03 00:24:26;;;;;;;4.50;1.30;;;17.20;1.00;;;;;;5018826;28;20740;-85
2023/08/03 00:26:51;;;;;;;3.70;1.50;;;17.10;1.00;;;;;;5011072;28;20196;-84
2023/08/03 00:29:17;;;;;;;4.27;1.37;;;17.10;1.00;;;;;;5031954;28;20247;-85
2023/08/03 00:31:43;;;;;;;3.13;1.50;;;17.10;1.00;;;;;;5023263;28;20213;-85
2023/08/03 00:34:08;;;;;;;2.83;1.50;;;17.10;1.00;;;;;;5012946;28;20323;-84
2023/08/03 00:36:34;;;;;;;6.10;1.60;;;17.10;1.00;;;;;;5011507;28;20192;-84
2023/08/03 00:38:59;;;;;;;4.07;1.63;;;17.10;1.00;;;;;;5011860;28;20213;-84
2023/08/03 00:41:25;;;;;;;2.77;1.57;;;17.10;1.00;;;;;;5025348;28;20186;-84
2023/08/03 00:43:50;;;;;;;3.10;1.70;;;17.00;1.00;;;;;;5031124;28;20192;-84
2023/08/03 00:46:16;;;;;;;3.83;2.10;;;17.00;1.00;;;;;;5016818;28;20180;-83
2023/08/03 00:48:41;;;;;;;2.90;1.70;;;16.90;1.00;;;;;;5017690;28;20295;-83
2023/08/03 00:51:07;;;;;;;3.63;2.00;;;16.90;1.00;;;;;;5017479;28;20185;-84
2023/08/03 00:53:32;;;;;;;7.07;2.33;;;16.90;1.00;;;;;;5016206;28;20238;-83
2023/08/03 00:55:58;;;;;;;4.13;2.00;;;16.80;1.00;;;;;;5022650;28;20244;-84
2023/08/03 00:58:24;;;;;;;3.90;1.83;;;16.80;1.00;;;;;;5025142;28;20196;-83
2023/08/03 01:00:49;;;;;;;3.63;1.47;;;16.80;1.00;;;;;;5020394;28;20197;-83
2023/08/03 01:03:15;;;;;;;3.87;1.87;;;16.80;1.00;;;;;;5022668;28;20231;-83
2023/08/03 01:05:40;;;;;;;5.33;1.90;;;16.80;1.00;;;;;;5017709;28;20633;-83
2023/08/03 01:08:06;;;;;;;3.17;1.83;;;16.80;1.00;;;;;;5017255;28;20203;-84
2023/08/03 01:10:31;;;;;;;5.23;1.63;;;16.80;1.00;;;;;;5022069;28;20196;-84
2023/08/03 01:12:57;;;;;;;4.30;1.93;;;16.80;1.00;;;;;;5027790;28;20188;-84
2023/08/03 01:15:23;;;;;;;5.47;1.80;;;16.70;1.00;;;;;;5018682;28;20216;-84
2023/08/03 01:17:48;;;;;;;6.67;2.03;;;16.80;1.00;;;;;;5010297;28;20215;-84
2023/08/03 01:20:17;;;;;;;5.37;2.40;;;16.80;1.00;;;;;;5012897;28;20244;-84
2023/08/03 01:22:43;;;;;;;4.40;1.60;;;16.70;1.00;;;;;;5017638;28;20186;-84
2023/08/03 01:25:10;;;;;;;6.80;1.80;;;16.80;1.00;;;;;;5017565;28;20533;-84
2023/08/03 01:27:35;;;;;;;2.93;1.77;;;16.80;1.00;;;;;;5028655;28;20316;-83
2023/08/03 01:30:01;;;;;;;3.27;1.87;;;16.80;1.00;;;;;;5021768;28;21014;-84
2023/08/03 01:32:26;;;;;;;3.47;1.63;;;16.80;1.00;;;;;;5022076;28;20642;-84
2023/08/03 01:34:52;;;;;;;7.40;2.30;;;16.80;1.00;;;;;;5020475;28;20647;-85
2023/08/03 01:37:18;;;;;;;6.60;2.43;;;16.90;1.00;;;;;;5019990;28;20889;-85
2023/08/03 01:39:45;;;;;;;3.60;1.67;;;16.90;1.00;;;;;;5010666;28;20214;-84
2023/08/03 01:42:11;;;;;;;3.73;1.33;;;16.90;1.00;;;;;;5028766;28;20469;-84
2023/08/03 01:44:37;;;;;;;6.63;1.90;;;16.90;1.00;;;;;;5020496;28;20431;-84
2023/08/03 01:47:03;;;;;;;3.40;1.77;;;16.90;1.00;;;;;;5025562;28;20477;-84
2023/08/03 01:49:30;;;;;;;3.67;1.70;;;17.00;1.00;;;;;;5026613;28;20463;-84
2023/08/03 01:51:56;;;;;;;7.27;2.77;;;17.00;1.00;;;;;;5012443;28;20188;-84
2023/08/03 01:54:21;;;;;;;3.23;2.07;;;17.00;1.00;;;;;;5019274;28;20513;-84
2023/08/03 01:56:47;;;;;;;4.17;1.90;;;17.00;1.00;;;;;;5028726;28;20184;-83
2023/08/03 01:59:12;;;;;;;6.50;1.70;;;17.00;1.00;;;;;;5020015;28;20255;-84
2023/08/03 02:01:39;;;;;;;4.00;1.43;;;17.00;1.00;;;;;;5022261;28;20190;-84
2023/08/03 02:04:04;;;;;;;6.60;2.30;;;17.00;1.00;;;;;;5013070;28;20549;-84
2023/08/03 02:06:30;;;;;;;5.27;1.50;;;17.00;1.00;;;;;;5011389;28;20437;-84
2023/08/03 02:08:55;;;;;;;2.33;1.60;;;17.00;1.00;;;;;;5023688;28;20205;-84
2023/08/03 02:11:22;;;;;;;4.10;1.57;;;17.00;1.00;;;;;;5024398;28;20658;-85
2023/08/03 02:13:47;;;;;;;5.07;2.30;;;17.10;1.00;;;;;;5019449;28;20656;-84
2023/08/03 02:16:15;;;;;;;2.40;1.50;;;17.00;1.00;;;;;;5011334;28;20436;-83
2023/08/03 02:18:40;;;;;;;3.73;1.40;;;17.10;1.00;;;;;;5008707;28;20200;-84
2023/08/03 02:21:06;;;;;;;5.60;1.73;;;17.00;1.00;;;;;;5015242;28;20437;-84
2023/08/03 02:23:32;;;;;;;3.40;1.57;;;17.00;1.00;;;;;;5021592;28;20188;-84
2023/08/03 02:26:04;;;;;;;2.93;1.67;;;17.00;1.00;;;;;;5023913;28;20439;-84
2023/08/03 02:28:30;;;;;;;4.27;1.60;;;17.00;1.00;;;;;;5025770;28;20435;-84
2023/08/03 02:30:57;;;;;;;3.63;1.80;;;17.00;1.00;;;;;;5022714;28;20449;-84
2023/08/03 02:33:22;;;;;;;4.03;1.77;;;17.00;1.00;;;;;;5013720;28;20494;-84
2023/08/03 02:35:48;;;;;;;3.20;1.73;;;17.00;99.90;;;;;;5010680;28;20448;-83
2023/08/03 02:38:14;;;;;;;7.93;2.10;;;17.00;99.90;;;;;;5013780;28;20224;-84
2023/08/03 02:40:40;;;;;;;3.50;1.60;;;17.00;1.00;;;;;;5024443;28;20605;-83
2023/08/03 02:43:05;;;;;;;4.73;1.40;;;17.00;1.00;;;;;;5017793;28;20518;-84
2023/08/03 02:45:31;;;;;;;7.27;2.00;;;17.00;1.00;;;;;;5021343;28;20173;-84
2023/08/03 02:47:56;;;;;;;5.10;1.70;;;17.00;1.00;;;;;;5022145;28;20936;-84
2023/08/03 02:50:22;;;;;;;5.47;1.93;;;17.00;1.00;;;;;;5016109;28;20186;-85
2023/08/03 02:52:47;;;;;;;4.33;1.43;;;17.00;99.90;;;;;;5019927;28;20205;-84
2023/08/03 02:55:13;;;;;;;2.20;1.30;;;17.00;99.90;;;;;;5027920;28;20648;-84
2023/08/03 02:57:38;;;;;;;4.10;1.80;;;17.00;99.90;;;;;;5016553;28;20209;-84
2023/08/03 03:00:05;;;;;;;3.57;1.10;;;17.10;99.90;;;;;;5023369;28;20186;-84
2023/08/03 03:02:31;;;;;;;4.40;1.97;;;17.10;99.90;;;;;;5013379;28;20174;-84
2023/08/03 03:04:56;;;;;;;5.23;1.40;;;17.10;99.90;;;;;;5015434;28;20815;-84
2023/08/03 03:07:22;;;;;;;2.03;1.30;;;17.10;99.90;;;;;;5016805;28;20636;-84
2023/08/03 03:09:47;;;;;;;2.33;1.50;;;17.10;99.90;;;;;;5019952;28;20540;-84
2023/08/03 03:12:13;;;;;;;2.00;1.40;;;17.10;99.90;;;;;;5020073;28;20720;-84
2023/08/03 03:14:38;;;;;;;4.87;1.50;;;17.10;99.90;;;;;;5019513;28;20200;-84
2023/08/03 03:17:04;;;;;;;2.87;1.20;;;17.10;99.90;;;;;;5030270;28;20204;-84
2023/08/03 03:19:29;;;;;;;5.60;1.40;;;17.10;99.90;;;;;;5025268;28;20204;-84
2023/08/03 03:21:56;;;;;;;2.80;1.50;;;17.10;99.90;;;;;;5033238;28;20647;-84
2023/08/03 03:24:21;;;;;;;2.80;1.20;;;17.10;99.90;;;;;;5033927;28;20540;-84
2023/08/03 03:26:47;;;;;;;3.30;1.20;;;17.10;99.90;;;;;;5033973;28;20425;-84
2023/08/03 03:29:12;;;;;;;2.97;1.00;;;17.20;99.90;;;;;;5028818;28;20263;-85
2023/08/03 03:31:38;;;;;;;3.20;1.40;;;17.20;99.90;;;;;;5019482;28;20607;-84
2023/08/03 03:34:04;;;;;;;3.93;1.33;;;17.20;99.90;;;;;;5017954;28;20221;-84
2023/08/03 03:36:29;;;;;;;2.53;1.50;;;17.20;99.90;;;;;;5018363;28;20188;-83
2023/08/03 03:38:55;;;;;;;2.23;0.90;;;17.20;99.90;;;;;;5022213;28;20258;-84
2023/08/03 03:41:20;;;;;;;2.37;0.93;;;17.20;99.90;;;;;;5028033;28;20524;-84
2023/08/03 03:43:46;;;;;;;2.70;1.30;;;17.30;99.90;;;;;;5018438;28;20646;-84
2023/08/03 03:46:11;;;;;;;2.40;1.27;;;17.30;99.90;;;;;;5015528;28;20179;-84
2023/08/03 03:48:37;;;;;;;5.43;1.73;;;17.20;99.90;;;;;;5018975;28;20212;-84
2023/08/03 03:51:03;;;;;;;1.40;1.13;;;17.30;99.90;;;;;;5019619;28;20228;-84
2023/08/03 03:53:28;;;;;;;2.57;1.27;;;17.30;99.90;;;;;;5019189;28;20243;-84
2023/08/03 03:55:54;;;;;;;1.80;1.10;;;17.30;99.90;;;;;;5030751;28;20213;-84
2023/08/03 03:58:19;;;;;;;3.10;1.10;;;17.30;99.90;;;;;;5024205;28;20206;-84
2023/08/03 04:00:45;;;;;;;4.53;1.30;;;17.30;99.90;;;;;;5013117;28;20616;-84
2023/08/03 04:03:10;;;;;;;2.33;1.27;;;17.30;99.90;;;;;;5021984;28;20206;-84
2023/08/03 04:05:37;;;;;;;2.23;1.20;;;17.30;99.90;;;;;;5023534;28;20189;-84
2023/08/03 04:08:03;;;;;;;3.00;1.20;;;17.30;99.90;;;;;;5011764;28;20216;-84
2023/08/03 04:10:29;;;;;;;2.00;1.20;;;17.30;99.90;;;;;;5022095;28;20519;-84
2023/08/03 04:13:12;;;;;;;2.00;1.00;;;17.30;99.90;;;;;;5023960;28;20523;-85
2023/08/03 04:15:37;;;;;;;3.30;1.27;;;17.30;99.90;;;;;;5032460;28;20195;-84
2023/08/03 04:18:03;;;;;;;1.83;1.13;;;17.30;99.90;;;;;;5022693;28;20476;-84
2023/08/03 04:20:28;;;;;;;2.80;0.90;;;17.30;99.90;;;;;;5017738;28;20561;-84
2023/08/03 04:22:54;;;;;;;2.60;1.07;;;17.30;99.90;;;;;;5022337;28;20189;-84
2023/08/03 04:25:19;;;;;;;2.03;1.10;;;17.30;99.90;;;;;;5017474;28;20648;-85
2023/08/03 04:27:45;;;;;;;2.30;1.03;;;17.30;61.90;;;;;;5018199;28;20216;-84
2023/08/03 04:30:11;;;;;;;4.60;1.20;;;17.30;55.20;;;;;;5012769;28;20284;-84
2023/08/03 04:32:37;;;;;;;3.90;1.23;;;17.30;37.90;;;;;;5012603;28;20189;-84
2023/08/03 04:35:03;;;;;;;4.90;1.10;;;17.30;44.50;;;;;;5016756;28;20440;-84
2023/08/03 04:37:29;;;;;;;2.23;1.10;;;17.40;26.00;;;;;;5014437;28;20464;-84
2023/08/03 04:39:55;;;;;;;2.33;1.13;;;17.40;1.00;;;;;;5022650;28;20467;-84
2023/08/03 04:42:21;;;;;;;2.57;0.80;;;17.40;8.70;;;;;;5015343;28;21453;-83
2023/08/03 04:44:46;;;;;;;8.30;1.23;;;17.50;1.00;;;;;;5024603;28;20196;-84
2023/08/03 04:47:12;;;;;;;2.20;0.80;;;17.50;1.00;;;;;;5015205;28;20203;-84
2023/08/03 04:49:37;;;;;;;3.57;1.50;;;17.60;1.00;;;;;;5012944;28;20190;-84
2023/08/03 04:52:03;;;;;;;1.60;0.90;;;17.80;1.00;;;;;;5028828;28;20272;-84
2023/08/03 04:54:29;;;;;;;1.70;0.93;;;17.90;99.90;;;;;;5019516;28;20771;-85
2023/08/03 04:56:54;;;;;;;2.50;1.03;;;18.00;1.00;;;;;;5016670;28;20446;-84
2023/08/03 04:59:20;;;;;;;1.63;1.10;;;18.10;99.90;;;;;;5021563;28;20213;-85
2023/08/03 05:01:46;;;;;;;2.13;1.07;;;18.10;30.60;;;;;;5017798;28;20183;-84
2023/08/03 05:04:11;;;;;;;1.40;0.80;;;18.10;1.00;;;;;;5012680;28;20209;-85
2023/08/03 05:06:37;;;;;;;3.83;0.90;;;18.00;1.00;;;;;;5011130;28;20182;-84
2023/08/03 05:09:02;;;;;;;3.73;1.00;;;18.00;1.00;;;;;;5014693;28;20218;-84
2023/08/03 05:11:28;;;;;;;1.03;0.60;;;18.00;99.90;;;;;;5028296;28;20731;-84
2023/08/03 05:13:53;;;;;;;1.53;0.80;;;18.00;99.90;;;;;;5018875;28;20217;-84
2023/08/03 05:16:24;;;;;;;4.77;0.90;;;18.00;99.90;;;;;;5014390;28;20194;-83
2023/08/03 05:18:53;;;;;;;2.03;0.80;;;18.00;99.90;;;;;;5017255;28;20203;-85
2023/08/03 05:21:19;;;;;;;2.37;0.90;;;18.00;52.30;;;;;;5028068;28;20803;-84
2023/08/03 05:23:47;;;;;;;2.80;1.10;;;17.90;1.00;;;;;;5025403;28;20445;-84
2023/08/03 05:26:13;;;;;;;1.40;0.80;;;17.80;1.00;;;;;;5021085;28;20182;-84
2023/08/03 05:28:38;;;;;;;2.40;0.90;;;17.70;1.00;;;;;;5029840;28;20452;-84
2023/08/03 05:31:07;;;;;;;3.20;0.80;;;17.60;1.00;;;;;;5024135;28;20213;-84
2023/08/03 05:33:34;;;;;;;1.10;0.70;;;17.60;82.60;;;;;;5012222;28;20206;-85
2023/08/03 05:35:59;;;;;;;1.60;0.90;;;17.60;99.90;;;;;;5018757;28;20449;-84
2023/08/03 05:38:25;;;;;;;3.20;1.20;;;17.50;99.90;;;;;;5014526;28;20476;-84
2023/08/03 05:40:50;;;;;;;3.70;1.27;;;17.50;99.90;;;;;;5020713;28;20554;-85
2023/08/03 05:43:16;;;;;;;2.47;1.20;;;17.40;1.00;;;;;;5012439;28;20182;-84
2023/08/03 05:45:48;;;;;;;2.80;0.97;;;17.30;1.00;;;;;;5012767;28;20650;-84
2023/08/03 05:48:18;;;;;;;1.50;1.40;;;17.10;1.00;;;;;;5013953;28;20571;-84
2023/08/03 05:50:49;;;;;;;6.00;1.60;;;17.10;1.00;;;;;;5018952;28;20456;-83
2023/08/03 05:53:17;;;;;;;8.33;1.87;;;17.00;1.00;;;;;;5015421;28;20527;-83
2023/08/03 05:55:44;;;;;;;6.87;1.80;;;17.00;1.00;;;;;;5020123;28;20467;-83
2023/08/03 05:58:12;;;;;;;3.70;1.30;;;16.90;1.00;;;;;;5026717;28;20468;-84
2023/08/03 06:00:39;;;;;;;5.10;1.60;;;16.90;1.00;;;;;;5024484;28;20443;-82
2023/08/03 06:03:04;;;;;;;1.77;1.23;;;16.90;1.00;;;;;;5023825;28;20448;-82
2023/08/03 06:05:47;;;;;;;2.20;1.70;;;16.90;1.00;;;;;;5029256;28;20464;-83
2023/08/03 06:08:20;;;;;;;11.53;1.83;;;17.00;1.00;;;;;;5035361;28;21055;-82
2023/08/03 06:10:48;;;;;;;3.83;1.53;;;17.10;1.00;;;;;;5026381;28;20427;-83
2023/08/03 06:13:15;;;;;;;3.90;1.80;;;17.20;1.00;;;;;;5038756;28;20447;-83
2023/08/03 06:15:42;;;;;;;2.23;1.50;;;17.10;1.00;;;;;;5036341;28;20446;-83
2023/08/03 06:18:18;;;;;;;3.40;1.70;;;17.10;1.00;;;;;;5029988;28;20460;-83
2023/08/03 06:20:49;;;;;;;5.00;1.80;;;17.10;1.00;;;;;;5038204;28;20964;-82
2023/08/03 06:23:26;;;;;;;5.00;1.93;;;17.00;1.00;;;;;;5026540;28;20433;-83
2023/08/03 06:25:54;;;;;;;3.30;1.93;;;17.00;1.00;;;;;;5037538;28;20439;-83
2023/08/03 06:28:21;;;;;;;3.20;2.03;;;17.00;1.00;;;;;;5006901;28;20470;-83
2023/08/03 06:30:48;;;;;;;2.00;1.57;;;17.10;1.00;;;;;;5031258;28;20435;-83
2023/08/03 06:33:21;;;;;;;2.63;1.73;;;17.10;1.00;;;;;;5036606;28;20970;-81
2023/08/03 06:35:47;;;;;;;4.10;1.97;;;17.20;1.00;;;;;;5023606;28;20948;-83
2023/08/03 06:38:19;;;;;;;5.80;2.20;;;17.20;1.00;;;;;;5036713;28;20459;-83
2023/08/03 06:40:46;;;;;;;6.40;2.30;;;17.20;1.00;;;;;;5030075;28;20833;-83
2023/08/03 06:43:13;;;;;;;4.83;2.40;;;17.20;1.00;;;;;;5031470;28;20930;-83
2023/08/03 06:45:41;;;;;;;4.70;1.90;;;17.30;1.00;;;;;;5025228;28;20498;-83
2023/08/03 06:48:08;;;;;;;2.53;1.93;;;17.30;1.00;;;;;;5024503;28;20459;-82
2023/08/03 06:50:34;;;;;;;3.80;2.30;;;17.40;1.00;;;;;;5027116;28;20479;-83
2023/08/03 06:53:03;;;;;;;3.27;1.53;;;17.30;1.00;;;;;;5026129;28;20439;-82
2023/08/03 06:55:30;;;;;;;4.90;2.13;;;17.40;1.00;;;;;;5026179;28;20484;-83
2023/08/03 06:57:55;;;;;;;3.13;1.43;;;17.40;1.00;;;;;;5018194;28;20500;-83
2023/08/03 07:00:21;;;;;;;2.90;1.40;;;17.50;1.00;;;;;;5029498;28;20974;-82
2023/08/03 07:02:48;;;;;;;1.73;1.20;;;17.50;1.00;;;;;;5017206;28;20717;-83
2023/08/03 07:05:14;;;;;;;2.43;1.20;;;17.50;1.00;;;;;;5019524;28;20190;-83
2023/08/03 07:07:40;;;;;;;3.43;1.60;;;17.50;1.00;;;;;;5020580;28;20583;-82
2023/08/03 07:10:06;;;;;;;3.20;1.83;;;17.60;1.00;;;;;;5026503;28;20447;-82
2023/08/03 07:12:36;;;;;;;3.33;1.37;;;17.60;1.00;;;;;;5022834;28;20203;-83
2023/08/03 07:15:02;;;;;;;4.30;1.63;;;17.70;1.00;;;;;;5026613;28;20459;-82
2023/08/03 07:17:28;;;;;;;3.60;1.70;;;17.70;1.00;;;;;;5022026;28;20468;-82
2023/08/03 07:19:54;;;;;;;2.03;1.70;;;17.50;1.00;;;;;;5029193;28;20465;-82
2023/08/03 07:22:23;;;;;;;2.53;1.40;;;17.50;1.00;;;;;;5030063;28;20541;-82
2023/08/03 07:24:50;;;;;;;3.73;2.00;;;17.40;1.00;;;;;;5025653;28;20595;-82
2023/08/03 07:27:15;;;;;;;4.67;2.13;;;17.40;1.00;;;;;;5028677;28;20459;-82
2023/08/03 07:29:42;;;;;;;4.43;1.73;;;17.50;1.00;;;;;;5019133;28;20454;-82
2023/08/03 07:32:08;;;;;;;3.10;1.77;;;17.50;1.00;;;;;;5024996;28;20793;-82
2023/08/03 07:34:33;;;;;;;2.80;1.93;;;17.50;1.00;;;;;;5026183;28;20470;-82
2023/08/03 07:36:59;;;;;;;3.13;1.97;;;17.40;1.00;;;;;;5031902;28;20454;-82
2023/08/03 07:39:25;;;;;;;3.63;1.73;;;17.30;1.00;;;;;;5030578;28;20245;-82
2023/08/03 07:41:51;;;;;;;2.50;1.83;;;17.40;1.00;;;;;;5022645;28;20437;-82
2023/08/03 07:44:17;;;;;;;4.07;1.47;;;17.40;1.00;;;;;;5027377;28;20215;-82
2023/08/03 07:46:44;;;;;;;2.60;1.60;;;17.50;1.00;;;;;;5033094;28;20189;-82
2023/08/03 07:49:10;;;;;;;3.73;1.40;;;18.10;1.00;;;;;;5030951;28;20844;-81
2023/08/03 07:51:36;;;;;;;2.73;1.40;;;18.40;1.00;;;;;;5035516;28;20444;-82
2023/08/03 07:54:02;;;;;;;1.60;1.10;;;18.70;99.90;;;;;;5024793;28;20190;-82
2023/08/03 07:56:27;;;;;;;2.83;1.20;;;18.80;99.90;;;;;;5022225;28;20518;-81
2023/08/03 07:58:55;;;;;;;2.60;0.93;;;19.00;1.00;;;;;;5025534;28;20469;-82
2023/08/03 08:01:21;;;;;;;2.40;1.20;;;19.70;99.90;;;;;;5022707;28;20186;-82
2023/08/03 08:03:47;;;;;;;3.13;1.30;;;19.90;99.90;;;;;;5018836;28;20439;-82
2023/08/03 08:06:17;;;;;;;3.80;1.17;;;20.00;99.90;;;;;;5018671;28;20538;-82
2023/08/03 08:08:44;;;;;;;1.93;1.00;;;20.20;99.90;;;;;;5016812;28;20928;-82
2023/08/03 08:11:11;;;;;;;1.87;0.90;;;20.30;99.90;;;;;;5031824;28;20443;-82
2023/08/03 08:13:37;;;;;;;2.13;1.57;;;20.50;99.90;;;;;;5034652;28;20449;-82
2023/08/03 08:16:05;;;;;;;3.00;1.10;;;20.70;1.00;;;;;;5025126;28;20443;-82
2023/08/03 08:18:32;;;;;;;3.47;1.30;;;21.10;1.00;;;;;;5035340;28;20209;-82
2023/08/03 08:20:58;;;;;;;2.70;1.70;;;21.30;99.90;;;;;;5033167;28;20442;-82
2023/08/03 08:23:24;;;;;;;2.23;1.20;;;21.40;1.00;;;;;;5029559;28;20440;-82
2023/08/03 08:25:50;;;;;;;2.10;0.90;;;21.30;99.90;;;;;;5027765;28;20958;-82
2023/08/03 08:28:16;;;;;;;5.47;1.10;;;21.50;99.90;;;;;;5027610;28;20206;-82
2023/08/03 08:30:41;;;;;;;2.30;1.10;;;21.60;99.90;;;;;;5030092;28;20536;-82
2023/08/03 08:33:07;;;;;;;4.70;1.20;;;21.50;99.90;;;;;;5021291;28;20657;-82
2023/08/03 08:35:32;;;;;;;2.30;1.13;;;21.50;99.90;;;;;;5032794;28;20190;-81
2023/08/03 08:37:59;;;;;;;3.40;1.20;;;21.40;99.90;;;;;;5024006;28;20268;-81
2023/08/03 08:40:28;;;;;;;4.13;1.20;;;21.10;99.90;;;;;;5019282;28;20199;-82
2023/08/03 08:42:55;;;;;;;3.17;1.50;;;20.90;1.00;;;;;;5031515;28;20446;-82
2023/08/03 08:45:21;;;;;;;2.30;1.13;;;20.70;1.00;;;;;;5025335;28;20438;-82
2023/08/03 08:47:46;;;;;;;3.93;1.07;;;20.50;1.00;;;;;;5029939;28;20449;-82
2023/08/03 08:50:12;;;;;;;3.80;1.20;;;20.30;99.90;;;;;;5038264;28;20467;-82
2023/08/03 08:52:41;;;;;;;2.23;1.40;;;20.70;99.90;;;;;;5030292;28;20304;-80
2023/08/03 08:55:10;;;;;;;2.30;1.17;;;21.10;20.70;;;;;;5035419;28;20175;-82
2023/08/03 08:57:36;;;;;;;2.63;1.10;;;21.80;99.90;;;;;;5025458;28;21009;-82
2023/08/03 09:00:05;;;;;;;2.73;1.60;;;21.90;99.90;;;;;;5027836;28;20470;-82
2023/08/03 09:02:31;;;;;;;5.33;1.50;;;22.10;29.70;;;;;;5026503;28;20186;-84
2023/08/03 09:04:56;;;;;;;5.63;1.20;;;22.70;1.00;;;;;;5024816;28;20436;-83
2023/08/03 09:07:22;;;;;;;3.33;1.10;;;22.40;1.00;;;;;;5029157;28;20280;-83
2023/08/03 09:09:48;;;;;;;3.33;1.20;;;21.90;1.00;;;;;;5026213;28;20201;-83
2023/08/03 09:12:26;;;;;;;1.97;1.07;;;21.80;1.00;;;;;;5025610;28;20198;-83
2023/08/03 09:14:52;;;;;;;2.80;1.40;;;21.50;31.00;;;;;;5025109;28;20255;-82
2023/08/03 09:17:19;;;;;;;2.07;1.40;;;21.20;99.90;;;;;;5024060;28;21169;-83
2023/08/03 09:19:45;;;;;;;5.80;1.37;;;21.20;99.90;;;;;;5027974;28;20469;-83
2023/08/03 09:22:11;;;;;;;2.80;1.50;;;21.30;99.90;;;;;;5024059;28;20568;-83
2023/08/03 09:24:37;;;;;;;8.97;2.00;;;21.40;99.90;;;;;;5018659;28;20451;-83
2023/08/03 09:27:04;;;;;;;2.83;1.33;;;21.50;99.90;;;;;;5027858;28;20868;-83
2023/08/03 09:29:31;;;;;;;4.63;1.70;;;22.30;1.00;;;;;;5023070;28;23006;-83
2023/08/03 09:32:04;;;;;;;3.90;1.40;;;23.00;1.00;;;;;;5021969;28;20856;-83
2023/08/03 09:34:42;;;;;;;4.47;1.00;;;24.20;1.00;;;;;;5018008;28;20806;-83
2023/08/03 09:37:08;;;;;;;4.70;1.50;;;25.00;99.90;;;;;;5028369;28;20487;-83
2023/08/03 09:39:36;;;;;;;4.30;1.63;;;25.40;99.90;;;;;;5028146;28;20504;-83
2023/08/03 09:42:03;;;;;;;4.03;1.90;;;25.40;99.90;;;;;;5026574;28;20492;-83
2023/08/03 09:44:31;;;;;;;9.07;1.60;;;24.70;99.90;;;;;;5024919;28;20779;-84
2023/08/03 09:46:57;;;;;;;6.07;2.07;;;24.00;99.90;;;;;;5017137;28;20428;-83
2023/08/03 09:49:24;;;;;;;4.80;2.30;;;23.50;99.90;;;;;;5018403;28;20548;-83
2023/08/03 09:51:53;;;;;;;4.23;1.80;;;23.20;99.90;;;;;;5027711;28;20444;-83
2023/08/03 09:54:39;;;;;;;9.10;1.80;;;23.40;99.90;;;;;;5025742;28;20440;-83
2023/08/03 09:57:09;;;;;;;4.80;1.43;;;23.80;99.90;;;;;;5030659;28;20468;-83
2023/08/03 09:59:36;;;;;;;2.23;1.57;;;24.00;99.90;;;;;;5027617;28;20465;-83
2023/08/03 10:02:07;;;;;;;5.37;1.77;;;24.20;99.90;;;;;;5020687;28;20519;-84
2023/08/03 10:04:37;;;;;;;2.80;1.53;;;24.40;99.90;;;;;;5022912;28;20506;-83
2023/08/03 10:07:08;;;;;;;4.97;1.80;;;25.70;99.90;;;;;;5029943;28;20444;-83
2023/08/03 10:09:39;;;;;;;3.40;1.60;;;26.50;99.90;;;;;;5030467;28;20460;-83
2023/08/03 10:12:16;;;;;;;2.90;1.60;;;26.60;99.90;;;;;;5030309;28;20444;-83
2023/08/03 10:14:43;;;;;;;3.20;1.20;;;26.80;99.90;;;;;;5026867;28;20995;-84
2023/08/03 10:17:11;;;;;;;4.30;1.03;;;28.50;99.90;;;;;;5021648;28;20540;-84
2023/08/03 10:19:41;;;;;;;3.60;1.53;;;29.10;99.90;;;;;;5020870;28;20472;-84
2023/08/03 10:22:08;;;;;;;3.53;1.40;;;29.70;99.90;;;;;;5028121;28;20490;-84
2023/08/03 10:24:33;;;;;;;3.93;1.40;;;30.70;99.90;;;;;;5026946;28;20445;-84
2023/08/03 10:27:18;;;;;;;2.73;1.20;;;31.90;99.90;;;;;;5024695;28;21165;-84
2023/08/03 10:29:50;;;;;;;4.23;1.17;;;33.70;99.90;;;;;;5028429;28;20205;-83
2023/08/03 10:32:21;;;;;;;2.17;1.00;;;33.40;99.90;;;;;;5023996;28;20759;-82
2023/08/03 10:34:47;;;;;;;3.93;1.23;;;33.10;99.90;;;;;;5020335;28;20440;-83
2023/08/03 10:37:13;;;;;;;5.07;1.40;;;31.70;99.90;;;;;;5030004;28;21059;-83
2023/08/03 10:39:58;;;;;;;3.20;1.53;;;30.60;99.90;;;;;;5029254;28;20478;-84
2023/08/03 10:42:24;;;;;;;3.23;1.80;;;30.20;99.90;;;;;;5029012;28;20186;-83
2023/08/03 10:44:51;;;;;;;4.07;1.63;;;29.40;99.90;;;;;;5021746;28;20446;-83
2023/08/03 10:47:28;;;;;;;3.87;1.73;;;29.90;99.90;;;;;;5022606;28;20452;-84
2023/08/03 10:49:55;;;;;;;5.47;1.33;;;30.50;99.90;;;;;;5031571;28;20444;-83
2023/08/03 10:52:30;;;;;;;5.50;1.83;;;29.90;99.90;;;;;;5027955;28;20448;-84
2023/08/03 10:55:19;;;;;;;5.80;1.90;;;28.80;99.90;;;;;;5032168;28;20474;-84
2023/08/03 10:57:44;;;;;;;3.50;1.93;;;27.50;99.90;;;;;;5020993;28;20518;-84
2023/08/03 11:00:13;;;;;;;8.53;2.10;;;26.50;99.90;;;;;;5016575;28;20473;-84
2023/08/03 11:02:42;;;;;;;7.20;2.17;;;25.60;99.90;;;;;;5028289;28;20261;-83
2023/08/03 11:05:11;;;;;;;3.83;1.88;;;24.90;99.90;;;;;;5031257;28;20499;-84
2023/08/03 11:07:38;;;;;;;3.33;1.80;;;24.40;99.90;;;;;;5020892;28;20491;-83
2023/08/03 11:10:05;;;;;;;6.73;1.90;;;26.00;99.90;;;;;;5024825;28;20491;-84
2023/08/03 11:12:31;;;;;;;3.70;1.80;;;27.90;99.90;;;;;;5024745;28;20436;-83
2023/08/03 11:14:59;;;;;;;7.10;2.13;;;28.30;99.90;;;;;;5020999;28;21408;-84
2023/08/03 11:17:29;;;;;;;6.70;1.70;;;29.00;99.90;;;;;;5023366;28;20830;-86
2023/08/03 11:19:55;;;;;;;4.40;1.50;;;29.20;99.90;;;;;;5033018;28;20847;-85
2023/08/03 11:22:22;;;;;;;3.80;1.80;;;28.40;99.90;;;;;;5024513;28;20445;-85
2023/08/03 11:24:49;;;;;;;4.23;1.90;;;27.50;99.90;;;;;;5033606;28;20495;-83
2023/08/03 11:27:17;;;;;;;6.53;1.93;;;26.60;99.90;;;;;;5029032;28;20575;-83
2023/08/03 11:29:43;;;;;;;4.30;1.87;;;25.80;99.90;;;;;;5034561;28;20467;-83
2023/08/03 11:32:11;;;;;;;8.10;2.17;;;25.60;99.90;;;;;;5027710;28;20441;-83
2023/08/03 11:34:38;;;;;;;2.80;1.60;;;25.20;99.90;;;;;;5031567;28;20202;-82
2023/08/03 11:37:03;;;;;;;3.47;1.70;;;25.10;99.90;;;;;;5020151;28;20473;-83
2023/08/03 11:39:29;;;;;;;4.33;1.40;;;24.40;99.90;;;;;;5033788;28;20502;-82
2023/08/03 11:41:55;;;;;;;5.20;1.80;;;24.10;99.90;;;;;;5028286;28;20241;-84
2023/08/03 11:44:23;;;;;;;3.60;1.90;;;23.90;99.90;;;;;;5023103;28;20194;-84
2023/08/03 11:47:00;;;;;;;5.00;1.97;;;24.90;99.90;;;;;;5020080;28;20524;-84
2023/08/03 11:49:28;;;;;;;3.53;1.37;;;25.80;99.90;;;;;;5017843;28;20451;-83
2023/08/03 11:51:59;;;;;;;3.43;1.20;;;27.20;99.90;;;;;;5029834;28;20464;-84
2023/08/03 11:54:25;;;;;;;3.77;1.20;;;27.20;99.90;;;;;;5027423;28;20437;-83
2023/08/03 11:56:51;;;;;;;4.60;1.60;;;26.70;99.90;;;;;;5022420;28;20445;-83
2023/08/03 11:59:17;;;;;;;1.70;1.23;;;27.90;99.90;;;;;;5029067;28;20522;-83
2023/08/03 12:01:46;;;;;;;4.60;1.27;;;28.50;99.90;;;;;;5029495;28;20280;-83
2023/08/03 12:04:13;;;;;;;2.20;1.03;;;28.80;99.90;;;;;;5020572;28;20179;-85
2023/08/03 12:07:06;;;;;;;5.60;1.73;;;28.40;99.90;;;;;;5016965;28;20560;-83
2023/08/03 12:09:37;;;;;;;5.03;1.37;;;28.00;99.90;;;;;;5027825;28;20429;-84
2023/08/03 12:12:04;;;;;;;4.10;1.80;;;27.30;99.90;;;;;;5014320;28;20555;-83
2023/08/03 12:14:30;;;;;;;3.27;1.53;;;27.00;99.90;;;;;;5030544;28;20516;-83
2023/08/03 12:16:55;;;;;;;4.23;1.63;;;27.00;99.90;;;;;;5029799;28;20892;-83
2023/08/03 12:19:21;;;;;;;9.73;2.10;;;26.30;99.90;;;;;;5034659;28;20324;-83
2023/08/03 12:21:47;;;;;;;9.17;2.43;;;25.40;99.90;;;;;;5021153;28;20191;-83
2023/08/03 12:24:13;;;;;;;3.70;1.87;;;24.90;99.90;;;;;;5025772;28;20269;-83
2023/08/03 12:26:39;;;;;;;3.40;1.20;;;24.40;99.90;;;;;;5020315;28;20601;-83
2023/08/03 12:29:05;;;;;;;6.30;1.60;;;24.00;99.90;;;;;;5023391;28;20479;-83
2023/08/03 12:31:31;;;;;;;3.60;1.73;;;24.00;99.90;;;;;;5014905;28;20844;-82
2023/08/03 12:33:57;;;;;;;3.07;1.43;;;24.10;99.90;;;;;;5028357;28;20736;-84
2023/08/03 12:36:24;;;;;;;3.87;1.90;;;24.90;99.90;;;;;;5029563;28;20437;-83
2023/08/03 12:38:50;;;;;;;2.63;1.37;;;25.80;99.90;;;;;;5024541;28;21361;-83
2023/08/03 12:41:17;;;;;;;4.23;1.60;;;26.20;99.90;;;;;;5020295;28;20426;-83
2023/08/03 12:43:43;;;;;;;3.60;1.60;;;26.30;99.90;;;;;;5019347;28;20190;-83
2023/08/03 12:46:08;;;;;;;2.53;1.40;;;25.80;99.90;;;;;;5013811;28;20484;-84
2023/08/03 12:48:34;;;;;;;2.03;1.43;;;25.30;99.90;;;;;;5010829;28;20257;-82